Time;durP1;ratioP1;P1;durP2;ratioP2;P2;SDS_P1;SDS_P2;PMS_P1;PMS_P2;Temp;Humidity;BMP_temperature;BMP_pressure;BME280_temperature;BME280_humidity;BME280_pressure;Samples;Min_cycle;Max_cycle;Signal;HPM_P1;HPM_P2
2023/08/24 00:00:33;;;;;;;7.50;4.50;;;;;;;17.42;60.39;99556.52;107241;1255;72638;-38
2023/08/24 00:03:02;;;;;;;6.70;4.20;;;;;;;17.41;60.31;99557.23;107305;1259;67602;-38
2023/08/24 00:05:36;;;;;;;8.40;4.70;;;;;;;17.39;60.64;99559.96;107349;1259;72683;-38
2023/08/24 00:08:04;;;;;;;7.80;4.10;;;;;;;17.38;61.29;99558.17;107308;1260;60419;-38
2023/08/24 00:10:32;;;;;;;6.40;4.00;;;;;;;17.40;61.72;99559.89;107276;1257;60333;-38
2023/08/24 00:13:00;;;;;;;11.30;4.30;;;;;;;17.44;61.67;99563.31;107354;1257;73846;-38
2023/08/24 00:15:28;;;;;;;8.30;4.40;;;;;;;17.43;61.16;99560.59;107289;1258;66867;-38
2023/08/24 00:17:56;;;;;;;8.90;5.00;;;;;;;17.41;60.87;99564.35;107389;1257;71418;-38
2023/08/24 00:20:23;;;;;;;9.10;5.00;;;;;;;17.40;60.79;99565.91;107292;1260;60422;-39
2023/08/24 00:22:51;;;;;;;7.30;4.80;;;;;;;17.40;60.70;99558.86;107293;1257;60476;-38
2023/08/24 00:25:19;;;;;;;8.00;5.00;;;;;;;17.41;60.76;99561.21;107358;1255;72572;-38
2023/08/24 00:27:46;;;;;;;9.20;4.40;;;;;;;17.41;60.81;99559.58;107301;1256;67571;-38
2023/08/24 00:30:15;;;;;;;8.00;5.10;;;;;;;17.39;61.24;99560.82;107426;1259;72680;-38
2023/08/24 00:32:42;;;;;;;8.40;4.60;;;;;;;17.37;61.37;99560.83;107266;1260;60496;-38
2023/08/24 00:35:11;;;;;;;5.70;4.20;;;;;;;17.34;61.48;99563.52;107362;1259;60421;-38
2023/08/24 00:37:39;;;;;;;8.00;4.80;;;;;;;17.30;61.51;99560.33;107253;1257;73863;-38
2023/08/24 00:40:10;;;;;;;7.20;4.60;;;;;;;17.25;61.65;99562.77;107187;1259;67609;-38
2023/08/24 00:42:39;;;;;;;6.70;4.70;;;;;;;17.21;61.74;99560.92;107260;1257;71395;-38
2023/08/24 00:45:11;;;;;;;8.20;5.30;;;;;;;17.17;62.07;99562.20;107318;1257;60187;-38
2023/08/24 00:47:40;;;;;;;7.60;4.80;;;;;;;17.13;62.39;99563.86;107287;1257;60329;-38
2023/08/24 00:50:08;;;;;;;9.20;5.30;;;;;;;17.14;62.78;99561.42;107277;1256;73845;-38
2023/08/24 00:52:40;;;;;;;8.60;4.90;;;;;;;17.17;62.79;99558.52;107257;1258;66976;-38
2023/08/24 00:55:08;;;;;;;9.60;4.70;;;;;;;17.17;62.42;99558.45;107250;1260;71400;-38
2023/08/24 00:57:37;;;;;;;6.50;4.60;;;;;;;17.17;61.99;99559.45;107286;1257;60162;-38
2023/08/24 01:00:06;;;;;;;6.90;4.50;;;;;;;17.15;61.85;99557.89;107249;1258;60556;-38
2023/08/24 01:02:34;;;;;;;7.50;4.80;;;;;;;17.15;62.05;99554.84;107397;1260;73871;-38
2023/08/24 01:05:06;;;;;;;8.40;5.20;;;;;;;17.14;62.13;99557.81;107253;1256;67570;-37
2023/08/24 01:07:39;;;;;;;10.90;5.90;;;;;;;17.13;61.73;99555.80;107331;1260;71554;-38
2023/08/24 01:10:09;;;;;;;7.00;5.70;;;;;;;17.12;61.44;99558.15;107190;1263;60580;-38
2023/08/24 01:12:52;;;;;;;8.00;5.30;;;;;;;17.10;61.45;99558.77;107294;1257;60547;-38
2023/08/24 01:15:24;;;;;;;11.70;6.00;;;;;;;17.07;61.66;99561.30;107290;1256;73811;-38
2023/08/24 01:17:52;;;;;;;8.50;5.40;;;;;;;17.06;61.98;99560.05;107408;1259;67989;-38
2023/08/24 01:20:20;;;;;;;8.90;5.60;;;;;;;17.05;62.30;99554.73;107184;1257;72660;-38
2023/08/24 01:23:14;;;;;;;10.50;5.10;;;;;;;17.04;62.61;99554.05;107285;1258;60389;-38
2023/08/24 01:26:10;;;;;;;8.10;5.00;;;;;;;17.03;62.68;99554.43;107235;1261;60431;-38
2023/08/24 01:28:38;;;;;;;9.00;4.90;;;;;;;17.06;62.83;99556.92;107209;1261;72576;-38
2023/08/24 01:31:07;;;;;;;8.70;5.20;;;;;;;17.09;62.77;99557.06;107248;1257;66474;-38
2023/08/24 01:33:35;;;;;;;7.70;4.50;;;;;;;17.08;62.66;99556.77;107354;1258;72680;-37
2023/08/24 01:36:03;;;;;;;9.10;4.90;;;;;;;17.08;62.78;99559.82;107149;1257;160743;-38
2023/08/24 01:40:48;;;;;;;7.80;4.50;;;;;;;17.09;62.88;99562.31;104352;1289;600352;-37
2023/08/24 01:43:15;;;;;;;8.20;5.10;;;;;;;17.07;62.73;99560.91;106502;1272;59133;-37
2023/08/24 01:45:55;;;;;;;7.20;5.40;;;;;;;17.07;62.67;99563.73;106638;1266;60041;-37
2023/08/24 01:48:23;;;;;;;7.60;5.40;;;;;;;17.06;62.48;99565.60;106723;1264;72230;-37
2023/08/24 01:50:51;;;;;;;6.80;4.90;;;;;;;17.05;62.33;99561.30;106563;1266;66430;-37
2023/08/24 01:53:19;;;;;;;7.70;4.80;;;;;;;17.03;62.53;99563.05;106472;1264;185039;-38
2023/08/24 01:55:47;;;;;;;7.90;5.20;;;;;;;17.02;62.63;99562.26;106759;1263;60090;-38
2023/08/24 01:58:15;;;;;;;9.00;5.20;;;;;;;17.01;62.83;99562.73;106774;1263;60054;-37
2023/08/24 02:00:43;;;;;;;8.30;4.60;;;;;;;16.99;62.98;99560.02;106763;1263;72256;-38
2023/08/24 02:03:10;;;;;;;8.40;4.90;;;;;;;16.97;63.06;99563.77;106706;1268;66276;-38
2023/08/24 02:05:38;;;;;;;7.30;4.70;;;;;;;17.00;63.17;99568.14;106651;1263;72709;-38
2023/08/24 02:08:05;;;;;;;5.60;4.40;;;;;;;17.05;63.13;99568.58;106727;1268;59620;-38
2023/08/24 02:10:33;;;;;;;7.70;4.70;;;;;;;17.06;63.28;99569.52;106746;1263;59731;-38
2023/08/24 02:13:01;;;;;;;7.60;4.90;;;;;;;17.06;63.32;99569.83;106744;1263;72124;-38
2023/08/24 02:15:29;;;;;;;6.70;4.80;;;;;;;17.07;63.41;99570.30;106720;1262;66480;-38
2023/08/24 02:17:56;;;;;;;8.10;5.10;;;;;;;17.06;63.37;99572.80;106744;1266;72689;-38
2023/08/24 02:20:24;;;;;;;7.00;4.60;;;;;;;17.05;63.25;99572.25;106693;1266;60274;-38
2023/08/24 02:22:51;;;;;;;8.60;5.10;;;;;;;17.03;62.92;99572.05;106646;1263;59149;-38
2023/08/24 02:25:19;;;;;;;6.50;4.80;;;;;;;17.00;62.61;99579.40;106726;1263;71873;-38
2023/08/24 02:27:47;;;;;;;7.90;4.50;;;;;;;16.96;62.66;99575.81;106694;1263;67592;-38
2023/08/24 02:30:15;;;;;;;6.80;4.70;;;;;;;16.91;62.64;99572.55;106666;1268;72699;-38
2023/08/24 02:32:43;;;;;;;7.60;4.80;;;;;;;16.88;62.75;99574.83;106728;1266;59676;-38
2023/08/24 02:35:11;;;;;;;10.60;5.30;;;;;;;16.85;62.87;99576.70;106805;1263;59600;-38
2023/08/24 02:37:38;;;;;;;8.60;5.10;;;;;;;16.82;63.02;99575.08;106744;1263;72257;-38
2023/08/24 02:40:09;;;;;;;7.40;4.30;;;;;;;16.78;63.29;99578.61;106707;1263;67745;-39
2023/08/24 02:42:36;;;;;;;7.20;4.70;;;;;;;16.79;63.33;99581.50;106835;1266;71541;-38
2023/08/24 02:45:05;;;;;;;6.80;4.40;;;;;;;16.81;63.10;99580.23;106725;1267;60553;-38
2023/08/24 02:47:32;;;;;;;9.00;5.40;;;;;;;16.78;63.10;99577.90;106915;1263;60059;-38
2023/08/24 02:50:00;;;;;;;7.40;5.30;;;;;;;16.75;63.31;99574.02;106917;1263;73051;-38
2023/08/24 02:52:28;;;;;;;8.20;5.60;;;;;;;16.71;63.54;99576.28;106835;1263;66640;-37
2023/08/24 02:54:57;;;;;;;8.60;5.40;;;;;;;16.68;63.78;99574.11;106818;1263;72655;-37
2023/08/24 02:57:25;;;;;;;7.90;5.50;;;;;;;16.65;63.77;99572.32;106808;1268;60102;-37
2023/08/24 02:59:52;;;;;;;11.90;5.60;;;;;;;16.62;63.95;99574.02;106671;1263;60079;-38
2023/08/24 03:02:20;;;;;;;12.10;5.90;;;;;;;16.58;64.02;99577.33;106825;1263;71750;-38
2023/08/24 03:04:48;;;;;;;7.50;5.40;;;;;;;16.54;64.24;99575.91;106828;1263;66375;-38
2023/08/24 03:07:17;;;;;;;7.70;5.30;;;;;;;16.50;64.47;99577.09;106785;1262;71413;-38
2023/08/24 03:09:45;;;;;;;11.20;5.60;;;;;;;16.51;64.45;99575.29;106655;1266;61772;-38
2023/08/24 03:12:12;;;;;;;10.10;5.80;;;;;;;16.55;64.27;99572.85;106641;1263;59659;-38
2023/08/24 03:14:40;;;;;;;6.90;4.90;;;;;;;16.56;64.30;99569.15;106776;1263;73383;-38
2023/08/24 03:17:08;;;;;;;7.40;5.20;;;;;;;16.56;64.60;99572.21;106784;1263;66783;-38
2023/08/24 03:19:36;;;;;;;7.40;5.50;;;;;;;16.57;65.03;99571.59;106747;1263;71826;-38
2023/08/24 03:22:04;;;;;;;10.10;5.50;;;;;;;16.57;65.25;99572.45;106882;1260;60273;-38
2023/08/24 03:24:33;;;;;;;7.80;5.30;;;;;;;16.57;65.11;99575.96;106888;1259;60034;-38
2023/08/24 03:27:01;;;;;;;9.20;5.60;;;;;;;16.55;65.06;99581.21;107053;1259;75295;-38
2023/08/24 03:29:29;;;;;;;8.80;5.70;;;;;;;16.53;65.13;99586.54;106794;1259;67566;-38
2023/08/24 03:31:57;;;;;;;8.70;5.20;;;;;;;16.50;64.96;99585.30;107050;1260;71202;-38
2023/08/24 03:34:26;;;;;;;8.40;5.90;;;;;;;16.48;64.99;99584.20;106979;1264;60470;-38
2023/08/24 03:36:56;;;;;;;10.20;5.30;;;;;;;16.52;65.00;99587.00;106953;1260;59811;-38
2023/08/24 03:39:24;;;;;;;8.90;5.60;;;;;;;16.59;64.94;99590.61;106867;1260;72078;-38
2023/08/24 03:41:51;;;;;;;7.10;5.00;;;;;;;16.62;64.86;99589.67;106956;1260;67631;-38
2023/08/24 03:44:19;;;;;;;8.40;5.20;;;;;;;16.59;64.80;99582.17;106817;1260;72733;-38
2023/08/24 03:46:47;;;;;;;8.00;4.70;;;;;;;16.66;65.03;99589.05;106856;1263;59632;-38
2023/08/24 03:49:15;;;;;;;6.70;4.70;;;;;;;16.70;64.96;99591.54;106837;1259;60038;-38
2023/08/24 03:51:42;;;;;;;6.00;4.30;;;;;;;16.73;64.84;99593.26;106850;1268;73082;-38
2023/08/24 03:54:10;;;;;;;9.70;5.00;;;;;;;16.76;64.68;99587.69;106884;1260;67981;-38
2023/08/24 03:56:39;;;;;;;6.60;4.50;;;;;;;16.77;64.52;99590.20;106890;1266;72077;-38
2023/08/24 03:59:06;;;;;;;6.80;4.10;;;;;;;16.80;64.52;99590.41;106951;1266;60059;-38
2023/08/24 04:01:34;;;;;;;8.90;4.40;;;;;;;16.81;64.52;99591.50;106907;1259;59563;-38
2023/08/24 04:04:02;;;;;;;5.80;4.00;;;;;;;16.82;64.64;99588.30;106879;1265;71172;-38
2023/08/24 04:06:29;;;;;;;5.10;3.90;;;;;;;16.89;64.37;99591.88;107020;1260;66777;-38
2023/08/24 04:08:57;;;;;;;7.70;4.10;;;;;;;16.99;64.12;99592.47;107024;1265;72701;-38
2023/08/24 04:11:25;;;;;;;6.60;3.90;;;;;;;17.05;63.77;99588.70;106865;1260;60088;-38
2023/08/24 04:13:52;;;;;;;6.10;3.60;;;;;;;17.11;63.49;99592.04;106921;1265;59645;-38
2023/08/24 04:16:20;;;;;;;6.70;3.90;;;;;;;17.15;63.42;99592.96;107031;1264;71974;-38
2023/08/24 04:18:48;;;;;;;5.50;3.60;;;;;;;17.19;63.37;99590.05;106904;1260;66323;-38
2023/08/24 04:21:15;;;;;;;7.00;3.60;;;;;;;17.14;63.28;99577.70;106842;1260;72474;-37
2023/08/24 04:23:45;;;;;;;7.70;3.50;;;;;;;17.29;62.85;99591.96;106971;1264;59688;-37
2023/08/24 04:26:13;;;;;;;7.10;3.40;;;;;;;17.34;62.67;99589.75;106915;1260;60033;-37
2023/08/24 04:28:40;;;;;;;5.20;3.40;;;;;;;17.34;62.69;99584.89;106909;1260;73052;-37
2023/08/24 04:31:08;;;;;;;6.40;3.70;;;;;;;17.41;62.42;99587.05;106818;1265;66265;-38
2023/08/24 04:33:36;;;;;;;5.70;3.90;;;;;;;17.43;62.18;99590.48;106807;1260;72761;-37
2023/08/24 04:36:04;;;;;;;5.40;3.40;;;;;;;17.44;62.11;99586.87;107030;1262;60060;-37
2023/08/24 04:38:31;;;;;;;4.50;3.20;;;;;;;17.45;62.14;99583.27;107055;1257;60061;-37
2023/08/24 04:40:59;;;;;;;6.60;3.50;;;;;;;17.46;62.17;99580.45;107090;1257;73037;-38
2023/08/24 04:43:26;;;;;;;4.70;3.20;;;;;;;17.48;62.20;99584.51;106992;1256;65312;-37
2023/08/24 04:45:54;;;;;;;4.40;3.10;;;;;;;17.54;62.27;99585.34;107065;1258;71424;-37
2023/08/24 04:48:23;;;;;;;5.40;3.10;;;;;;;17.65;63.13;99586.16;107045;1256;59680;-37
2023/08/24 04:50:51;;;;;;;4.70;3.10;;;;;;;17.73;63.40;99586.11;107124;1262;59613;-37
2023/08/24 04:53:19;;;;;;;4.70;3.50;;;;;;;17.82;62.93;99588.09;107077;1256;72428;-37
2023/08/24 04:55:46;;;;;;;4.80;3.20;;;;;;;17.90;62.43;99586.86;107059;1256;67586;-37
2023/08/24 04:58:14;;;;;;;7.50;3.60;;;;;;;17.94;61.92;99583.54;107062;1262;72685;-38
2023/08/24 05:00:42;;;;;;;6.70;3.40;;;;;;;17.99;61.35;99586.40;107053;1262;61155;-38
2023/08/24 05:03:15;;;;;;;5.90;3.30;;;;;;;18.03;60.96;99583.70;107133;1256;60118;-38
2023/08/24 05:05:45;;;;;;;8.10;3.60;;;;;;;18.08;61.18;99584.69;107015;1254;71828;-38
2023/08/24 05:08:13;;;;;;;7.80;4.00;;;;;;;18.15;61.62;99586.13;107268;1257;66431;-38
2023/08/24 05:10:46;;;;;;;5.10;3.40;;;;;;;18.21;61.49;99588.11;107015;1263;71822;-37
2023/08/24 05:13:14;;;;;;;6.80;3.70;;;;;;;18.26;61.26;99592.37;107254;1257;60097;-38
2023/08/24 05:15:42;;;;;;;5.80;3.40;;;;;;;18.29;61.13;99592.98;107133;1256;59342;-38
2023/08/24 05:18:09;;;;;;;5.10;3.30;;;;;;;18.33;61.25;99591.38;107170;1257;73364;-38
2023/08/24 05:20:37;;;;;;;6.30;3.30;;;;;;;18.40;61.47;99592.10;106982;1257;68040;-38
2023/08/24 05:23:05;;;;;;;6.20;3.00;;;;;;;18.51;61.41;99591.62;107109;1261;71335;-39
2023/08/24 05:25:34;;;;;;;6.20;3.20;;;;;;;18.62;61.06;99591.36;107182;1261;60121;-39
2023/08/24 05:28:02;;;;;;;4.20;3.00;;;;;;;18.71;60.70;99589.40;107125;1257;60071;-39
2023/08/24 05:30:30;;;;;;;5.10;3.20;;;;;;;18.77;60.62;99587.84;107167;1257;73483;-39
2023/08/24 05:32:58;;;;;;;4.00;3.00;;;;;;;18.87;60.34;99588.36;107195;1262;67735;-39
2023/08/24 05:35:27;;;;;;;5.10;3.30;;;;;;;18.96;60.51;99585.11;107140;1257;72700;-39
2023/08/24 05:37:55;;;;;;;8.50;3.10;;;;;;;19.07;60.09;99579.65;107130;1257;59735;-39
2023/08/24 05:40:22;;;;;;;5.80;3.40;;;;;;;19.19;59.89;99579.81;106953;1257;61130;-39
2023/08/24 05:42:50;;;;;;;5.80;3.10;;;;;;;19.28;59.66;99577.34;107040;1261;73087;-39
2023/08/24 05:45:18;;;;;;;5.20;3.00;;;;;;;19.38;59.38;99574.30;107009;1258;67553;-38
2023/08/24 05:47:45;;;;;;;5.40;2.90;;;;;;;19.47;59.28;99577.90;107012;1262;73278;-38
2023/08/24 05:50:13;;;;;;;5.50;3.00;;;;;;;19.58;59.21;99574.31;107090;1258;60553;-38
2023/08/24 05:52:41;;;;;;;4.70;3.10;;;;;;;19.66;58.82;99575.53;107118;1257;60425;-38
2023/08/24 05:55:08;;;;;;;5.40;2.90;;;;;;;19.73;58.44;99577.21;107079;1257;72592;-38
2023/08/24 05:57:36;;;;;;;6.30;2.80;;;;;;;19.81;58.56;99576.55;107128;1257;67910;-38
2023/08/24 06:00:09;;;;;;;5.80;2.50;;;;;;;19.88;58.67;99577.45;107199;1260;71473;-38
2023/08/24 06:02:42;;;;;;;6.90;2.80;;;;;;;19.98;58.17;99577.32;107198;1257;59740;-38
2023/08/24 06:05:11;;;;;;;4.30;2.70;;;;;;;20.07;57.45;99582.44;107125;1260;60439;-38
2023/08/24 06:07:38;;;;;;;5.70;2.60;;;;;;;20.16;56.17;99582.29;107113;1257;73831;-38
2023/08/24 06:10:07;;;;;;;5.30;2.30;;;;;;;20.23;55.54;99584.52;107205;1255;67578;-38
2023/08/24 06:12:34;;;;;;;4.80;2.50;;;;;;;20.31;55.14;99583.62;107229;1260;70105;-38
2023/08/24 06:15:04;;;;;;;4.70;2.70;;;;;;;20.39;54.91;99584.44;107185;1257;60657;-38
2023/08/24 06:17:32;;;;;;;7.80;3.70;;;;;;;20.47;54.86;99589.58;107080;1260;60472;-38
2023/08/24 06:20:00;;;;;;;9.70;4.30;;;;;;;20.56;55.17;99589.33;107194;1257;73958;-38
2023/08/24 06:22:27;;;;;;;6.40;4.10;;;;;;;20.63;53.88;99589.38;107176;1260;67601;-38
2023/08/24 06:24:59;;;;;;;5.50;3.50;;;;;;;20.71;53.20;99584.66;107273;1260;72670;-38
2023/08/24 06:27:27;;;;;;;3.70;2.40;;;;;;;20.78;52.07;99581.52;107133;1262;60117;-38
2023/08/24 06:29:54;;;;;;;4.70;1.90;;;;;;;20.86;50.91;99586.10;107213;1257;60434;-38
2023/08/24 06:32:22;;;;;;;3.90;1.60;;;;;;;20.94;50.00;99584.52;107071;1262;74390;-38
2023/08/24 06:34:50;;;;;;;2.70;1.30;;;;;;;21.02;49.43;99587.67;107122;1262;67582;-38
2023/08/24 06:37:18;;;;;;;3.20;1.70;;;;;;;21.09;48.84;99587.77;107134;1260;72701;-38
2023/08/24 06:39:45;;;;;;;3.30;1.70;;;;;;;21.16;48.13;99590.02;107068;1257;60268;-39
2023/08/24 06:42:14;;;;;;;7.90;3.20;;;;;;;21.23;48.61;99590.27;107067;1263;60488;-39
2023/08/24 06:44:41;;;;;;;6.70;3.40;;;;;;;21.32;49.56;99590.64;107201;1261;73871;-38
2023/08/24 06:47:09;;;;;;;4.80;2.50;;;;;;;21.40;49.60;99591.89;107062;1262;67563;-37
2023/08/24 06:49:37;;;;;;;6.30;2.60;;;;;;;21.50;49.21;99595.22;107049;1260;71377;-38
2023/08/24 06:52:04;;;;;;;4.70;2.10;;;;;;;21.60;49.48;99595.48;107065;1258;60488;-38
2023/08/24 06:54:32;;;;;;;3.40;2.10;;;;;;;21.70;48.99;99593.61;107111;1262;60388;-38
2023/08/24 06:57:00;;;;;;;5.80;2.30;;;;;;;21.80;49.37;99594.77;107250;1260;71815;-38
2023/08/24 06:59:27;;;;;;;3.70;2.10;;;;;;;21.91;49.04;99594.22;107115;1262;67576;-39
2023/08/24 07:01:55;;;;;;;5.30;2.10;;;;;;;22.04;48.08;99592.44;107234;1259;71467;-44
2023/08/24 07:04:23;;;;;;;3.20;2.20;;;;;;;22.17;47.83;99593.79;107098;1254;60438;-37
2023/08/24 07:06:51;;;;;;;3.40;2.20;;;;;;;22.28;47.49;99595.95;107146;1261;60438;-38
2023/08/24 07:09:19;;;;;;;2.70;2.00;;;;;;;22.38;46.95;99590.80;107059;1257;73899;-36
2023/08/24 07:11:48;;;;;;;4.40;2.30;;;;;;;22.49;46.57;99592.34;107209;1260;67584;-36
2023/08/24 07:14:16;;;;;;;4.00;2.10;;;;;;;22.59;46.41;99594.20;107188;1262;72691;-36
2023/08/24 07:16:43;;;;;;;5.90;2.50;;;;;;;22.67;46.14;99598.90;107211;1257;60543;-36
2023/08/24 07:19:11;;;;;;;7.80;2.60;;;;;;;22.74;45.79;99597.95;107092;1256;60451;-38
2023/08/24 07:21:38;;;;;;;3.20;2.00;;;;;;;22.81;45.38;99596.73;107048;1262;74236;-38
2023/08/24 07:24:07;;;;;;;10.60;2.20;;;;;;;22.91;45.42;99598.73;107200;1261;66739;-38
2023/08/24 07:26:34;;;;;;;5.00;2.40;;;;;;;23.04;45.37;99595.78;107175;1260;73536;-38
2023/08/24 07:29:02;;;;;;;7.00;2.00;;;;;;;23.18;45.30;99595.95;107180;1262;60578;-38
2023/08/24 07:31:30;;;;;;;5.70;2.00;;;;;;;23.31;44.34;99595.63;107145;1257;60509;-38
2023/08/24 07:33:58;;;;;;;3.60;2.10;;;;;;;23.43;44.32;99597.41;107091;1257;73862;-38
2023/08/24 07:36:26;;;;;;;7.40;2.60;;;;;;;23.54;43.86;99596.95;107086;1261;67725;-38
2023/08/24 07:38:53;;;;;;;46.70;5.00;;;;;;;23.63;43.89;99589.33;107028;1257;72695;-38
2023/08/24 07:41:21;;;;;;;4.10;1.90;;;;;;;23.79;43.03;99597.04;107689;1257;60549;-38
2023/08/24 07:43:49;;;;;;;3.10;1.70;;;;;;;23.90;42.50;99595.60;107100;1258;60057;-39
2023/08/24 07:46:16;;;;;;;3.70;1.80;;;;;;;24.04;41.84;99595.09;107147;1263;72254;-38
2023/08/24 07:48:44;;;;;;;2.50;1.70;;;;;;;24.17;42.01;99593.64;107138;1258;67549;-38
2023/08/24 07:51:11;;;;;;;4.00;1.90;;;;;;;24.29;40.58;99595.95;107096;1260;72774;-39
2023/08/24 07:53:39;;;;;;;3.90;2.00;;;;;;;24.32;40.27;99590.79;107135;1260;60370;-39
2023/08/24 07:56:07;;;;;;;5.70;1.90;;;;;;;24.36;40.51;99591.92;107172;1260;60151;-42
2023/08/24 07:58:35;;;;;;;2.60;1.70;;;;;;;24.41;40.45;99591.75;107069;1257;73929;-38
2023/08/24 08:01:02;;;;;;;2.90;1.60;;;;;;;24.47;39.63;99590.96;107098;1263;66320;-38
2023/08/24 08:03:31;;;;;;;4.00;1.70;;;;;;;24.57;39.75;99592.32;107062;1259;72699;-38
2023/08/24 08:06:04;;;;;;;2.20;1.60;;;;;;;24.65;39.37;99592.58;107146;1257;61395;-39
2023/08/24 08:08:32;;;;;;;4.40;1.90;;;;;;;24.68;39.45;99589.13;107145;1256;60408;-39
2023/08/24 08:11:01;;;;;;;3.50;2.00;;;;;;;24.75;39.48;99589.79;107215;1258;72288;-39
2023/08/24 08:13:29;;;;;;;4.10;1.80;;;;;;;24.83;38.70;99588.30;107240;1256;66671;-39
2023/08/24 08:16:07;;;;;;;3.70;1.40;;;;;;;24.93;37.64;99590.83;107173;1257;72709;-39
2023/08/24 08:18:40;;;;;;;3.40;1.30;;;;;;;24.97;35.84;99591.57;107101;1260;61838;-38
2023/08/24 08:21:15;;;;;;;2.90;1.60;;;;;;;24.96;34.39;99590.30;107180;1257;59236;-37
2023/08/24 08:23:45;;;;;;;2.00;1.20;;;;;;;24.98;35.45;99590.10;107284;1257;75721;-38
2023/08/24 08:26:13;;;;;;;3.00;1.80;;;;;;;25.04;35.86;99590.36;107193;1257;67887;-39
2023/08/24 08:28:41;;;;;;;4.30;2.10;;;;;;;25.14;36.24;99591.89;106977;1257;70483;-39
2023/08/24 08:31:09;;;;;;;2.80;1.70;;;;;;;25.25;35.98;99586.73;106996;1260;60505;-39
2023/08/24 08:33:36;;;;;;;2.60;1.70;;;;;;;25.37;35.11;99584.13;107014;1261;60379;-38
2023/08/24 08:36:04;;;;;;;2.50;1.60;;;;;;;25.47;35.30;99584.36;107342;1254;73891;-38
2023/08/24 08:38:31;;;;;;;9.60;2.10;;;;;;;25.53;35.29;99583.27;107318;1254;66446;-38
2023/08/24 08:41:04;;;;;;;2.80;1.70;;;;;;;25.57;35.86;99576.89;107349;1256;72703;-39
2023/08/24 08:43:32;;;;;;;5.90;1.50;;;;;;;25.69;35.32;99578.48;107457;1254;60547;-38
2023/08/24 08:45:59;;;;;;;23.60;5.00;;;;;;;25.83;35.33;99570.53;107656;1257;60428;-38
2023/08/24 08:48:28;;;;;;;40.00;7.50;;;;;;;25.99;34.98;99568.76;107514;1251;72549;-39
2023/08/24 08:50:57;;;;;;;5.50;2.10;;;;;;;26.11;34.41;99570.02;107551;1251;67942;-39
2023/08/24 08:53:25;;;;;;;59.50;8.20;;;;;;;26.14;33.31;99569.95;107689;1254;72670;-45
2023/08/24 08:55:54;;;;;;;5.10;2.10;;;;;;;26.16;33.93;99570.37;107662;1253;61030;-38
2023/08/24 08:58:22;;;;;;;6.70;1.90;;;;;;;26.23;33.68;99568.35;107740;1256;60378;-38
2023/08/24 09:00:50;;;;;;;5.70;2.50;;;;;;;26.28;33.67;99568.05;107549;1255;73877;-38
2023/08/24 09:03:18;;;;;;;3.60;2.10;;;;;;;26.32;34.30;99567.42;107220;1254;68360;-38
2023/08/24 09:05:49;;;;;;;5.80;2.20;;;;;;;26.36;34.60;99564.54;107716;1250;71473;-38
2023/08/24 09:08:17;;;;;;;3.10;1.80;;;;;;;26.40;34.37;99554.77;107590;1251;60395;-38
2023/08/24 09:10:45;;;;;;;3.60;1.80;;;;;;;26.51;33.91;99561.15;107488;1250;60493;-38
2023/08/24 09:13:12;;;;;;;3.30;1.90;;;;;;;26.59;33.16;99560.09;107643;1250;72600;-38
2023/08/24 09:15:40;;;;;;;3.50;1.80;;;;;;;26.61;32.42;99557.05;107412;1252;67894;-38
2023/08/24 09:18:08;;;;;;;3.80;2.10;;;;;;;26.63;32.82;99557.29;107426;1253;72667;-37
2023/08/24 09:20:36;;;;;;;4.60;1.80;;;;;;;26.66;32.60;99555.66;107458;1254;60496;-37
2023/08/24 09:23:03;;;;;;;2.20;1.60;;;;;;;26.67;32.22;99550.48;107612;1252;59292;-38
2023/08/24 09:25:31;;;;;;;4.10;1.60;;;;;;;26.70;31.79;99546.98;107524;1250;73779;-39
2023/08/24 09:28:01;;;;;;;3.00;1.70;;;;;;;26.75;32.16;99545.14;107544;1251;67561;-39
2023/08/24 09:30:32;;;;;;;3.70;1.90;;;;;;;26.79;31.53;99537.80;107636;1254;72474;-39
2023/08/24 09:33:04;;;;;;;2.20;1.70;;;;;;;26.81;32.21;99539.02;107500;1254;60491;-39
2023/08/24 09:35:36;;;;;;;4.50;1.80;;;;;;;26.87;32.40;99536.77;107643;1254;60432;-38
2023/08/24 09:38:21;;;;;;;4.80;2.00;;;;;;;26.91;32.00;99536.45;107426;1252;73838;-39
2023/08/24 09:40:55;;;;;;;4.00;2.00;;;;;;;26.91;31.78;99534.77;107529;1254;66640;-39
2023/08/24 09:43:23;;;;;;;3.60;1.70;;;;;;;26.96;31.29;99529.69;107487;1253;71161;-38
2023/08/24 09:45:55;;;;;;;3.90;2.10;;;;;;;27.07;32.07;99531.30;107478;1254;60120;-38
2023/08/24 09:48:23;;;;;;;4.00;1.90;;;;;;;27.27;31.49;99534.71;107648;1254;60449;-39
2023/08/24 09:50:55;;;;;;;2.60;1.50;;;;;;;27.41;30.58;99523.62;107568;1251;74150;-39
2023/08/24 09:53:23;;;;;;;2.20;1.50;;;;;;;27.56;31.24;99525.41;107487;1254;68029;-39
2023/08/24 09:55:59;;;;;;;2.50;1.80;;;;;;;27.71;31.15;99524.60;107496;1257;72493;-39
2023/08/24 09:58:27;;;;;;;3.30;1.60;;;;;;;27.73;30.98;99518.46;107572;1251;59295;-39
2023/08/24 10:00:55;;;;;;;3.80;1.90;;;;;;;27.79;31.22;99519.27;107493;1251;60292;-39
2023/08/24 10:03:26;;;;;;;4.90;1.90;;;;;;;27.90;32.26;99513.29;107574;1251;71733;-39
2023/08/24 10:06:02;;;;;;;6.60;1.80;;;;;;;28.13;32.10;99520.92;107673;1251;66316;-39
2023/08/24 10:08:40;;;;;;;3.10;1.80;;;;;;;28.28;31.36;99516.53;107578;1257;72698;-39
2023/08/24 10:11:07;;;;;;;2.80;1.70;;;;;;;28.36;30.77;99514.88;107436;1254;60559;-39
2023/08/24 10:14:07;;;;;;;4.80;2.00;;;;;;;28.49;31.32;99517.16;107375;1254;60509;-39
2023/08/24 10:16:35;;;;;;;;;;;;;;;28.51;29.77;99518.86;107475;1254;72646;-39
2023/08/24 10:19:03;;;;;;;6.30;2.00;;;;;;;28.28;30.43;99513.33;107556;1251;67878;-39
2023/08/24 10:21:31;;;;;;;34.40;5.10;;;;;;;28.02;30.77;99515.88;107558;1254;72673;-39
2023/08/24 10:24:01;;;;;;;3.70;2.00;;;;;;;27.94;31.04;99515.79;107519;1255;60333;-39
2023/08/24 10:26:29;;;;;;;5.10;2.00;;;;;;;27.95;30.96;99510.81;107485;1251;60505;-39
2023/08/24 10:28:57;;;;;;;4.40;2.10;;;;;;;28.03;30.54;99506.20;107520;1251;73867;-39
2023/08/24 10:31:25;;;;;;;9.10;3.60;;;;;;;28.21;30.81;99502.64;107477;1252;67569;-39
2023/08/24 10:33:53;;;;;;;3.90;1.90;;;;;;;28.48;30.37;99502.39;107506;1253;72671;-39
2023/08/24 10:36:21;;;;;;;4.50;3.70;;;;;;;28.79;30.29;99504.11;107516;1251;60323;-38
2023/08/24 10:38:48;;;;;;;4.20;2.10;;;;;;;29.12;30.42;99505.03;107608;1251;60425;-39
2023/08/24 10:41:16;;;;;;;4.60;2.80;;;;;;;29.43;29.95;99508.45;107568;1251;73816;-39
2023/08/24 10:43:50;;;;;;;5.10;1.80;;;;;;;29.72;29.92;99499.48;107499;1251;67530;-39
2023/08/24 10:46:17;;;;;;;4.10;2.40;;;;;;;29.99;28.97;99504.20;107608;1251;72697;-39
2023/08/24 10:48:48;;;;;;;5.10;1.90;;;;;;;30.10;28.74;99497.89;107484;1254;60502;-39
2023/08/24 10:51:21;;;;;;;6.30;1.80;;;;;;;30.11;27.93;99497.95;107402;1251;60318;-38
2023/08/24 10:53:55;;;;;;;318.50;48.00;;;;;;;30.16;28.20;99496.39;107436;1253;73832;-38
2023/08/24 10:56:38;;;;;;;32.40;6.80;;;;;;;30.36;28.16;99491.33;107504;1251;67614;-38
2023/08/24 10:59:16;;;;;;;14.10;3.60;;;;;;;30.67;27.82;99492.20;107470;1255;72920;-43
2023/08/24 11:01:55;;;;;;;486.20;84.40;;;;;;;30.86;26.91;99488.77;107443;1254;60494;-39
2023/08/24 11:04:22;;;;;;;643.10;98.40;;;;;;;30.96;27.25;99486.12;107538;1254;60294;-38
2023/08/24 11:06:58;;;;;;;93.70;17.20;;;;;;;30.97;27.31;99488.21;107413;1254;74509;-37
2023/08/24 11:09:27;;;;;;;23.10;5.10;;;;;;;30.88;26.87;99486.09;107487;1254;66619;-37
2023/08/24 11:11:59;;;;;;;4.10;1.90;;;;;;;30.79;26.63;99477.30;107397;1254;72733;-37
2023/08/24 11:14:29;;;;;;;19.70;3.10;;;;;;;30.79;26.57;99479.55;107559;1251;60415;-37
2023/08/24 11:17:02;;;;;;;4.50;2.10;;;;;;;30.86;26.93;99468.91;107597;1251;60568;-38
2023/08/24 11:19:30;;;;;;;3.00;1.80;;;;;;;31.14;26.51;99470.77;107351;1251;73867;-38
2023/08/24 11:21:58;;;;;;;4.20;1.70;;;;;;;31.52;26.69;99468.23;107573;1251;67554;-38
2023/08/24 11:24:26;;;;;;;6.70;2.30;;;;;;;31.94;26.08;99464.77;107521;1251;72665;-38
2023/08/24 11:26:54;;;;;;;11.40;2.10;;;;;;;32.24;25.66;99462.45;107623;1252;60342;-38
2023/08/24 11:29:22;;;;;;;3.30;2.00;;;;;;;32.54;25.14;99463.45;107519;1252;60322;-38
2023/08/24 11:31:50;;;;;;;5.10;1.90;;;;;;;32.77;24.81;99464.38;107429;1258;73838;-38
2023/08/24 11:34:18;;;;;;;5.60;1.90;;;;;;;32.99;24.79;99468.01;107610;1257;67825;-38